createdAt,value
2023-01-07T00:00:50.579Z,7.70
2023-01-07T00:03:17.206Z,7.70
2023-01-07T00:05:44.309Z,7.70
2023-01-07T00:08:11.537Z,7.70
2023-01-07T00:10:38.191Z,7.60
2023-01-07T00:13:04.933Z,7.60
2023-01-07T00:15:31.561Z,7.60
2023-01-07T00:17:58.179Z,7.60
2023-01-07T00:20:24.821Z,7.60
2023-01-07T00:22:51.929Z,7.70
2023-01-07T00:25:18.605Z,7.70
2023-01-07T00:27:45.249Z,7.70
2023-01-07T00:30:12.355Z,7.70
2023-01-07T00:32:57.815Z,7.70
2023-01-07T00:35:24.490Z,7.80
2023-01-07T00:37:52.273Z,7.80
2023-01-07T00:40:19.421Z,7.80
2023-01-07T00:42:55.115Z,7.80
2023-01-07T00:45:22.364Z,7.80
2023-01-07T00:47:49.455Z,7.80
2023-01-07T00:50:16.130Z,7.80
2023-01-07T00:52:42.743Z,7.80
2023-01-07T00:55:11.050Z,7.80
2023-01-07T00:57:37.815Z,7.80
2023-01-07T01:00:04.791Z,7.80
2023-01-07T01:02:31.438Z,7.80
2023-01-07T01:04:58.085Z,7.80
2023-01-07T01:07:24.785Z,7.80
2023-01-07T01:09:51.448Z,7.80
2023-01-07T01:12:18.172Z,7.80
2023-01-07T01:14:44.802Z,7.80
2023-01-07T01:17:11.624Z,7.80
2023-01-07T01:19:38.429Z,7.80
2023-01-07T01:22:05.265Z,7.80
2023-01-07T01:24:31.908Z,7.70
2023-01-07T01:26:58.564Z,7.70
2023-01-07T01:29:25.185Z,7.70
2023-01-07T01:31:51.889Z,7.70
2023-01-07T01:34:18.623Z,7.70
2023-01-07T01:36:45.374Z,7.70
2023-01-07T01:39:12.189Z,7.70
2023-01-07T01:41:39.101Z,7.70
2023-01-07T01:44:26.769Z,7.70
2023-01-07T01:46:53.513Z,7.80
2023-01-07T01:49:24.959Z,7.90
2023-01-07T01:52:15.086Z,8.00
2023-01-07T01:54:44.796Z,8.10
2023-01-07T01:57:11.656Z,8.20
2023-01-07T01:59:42.027Z,8.30
2023-01-07T02:02:10.981Z,8.30
2023-01-07T02:04:38.151Z,8.40
2023-01-07T02:07:05.907Z,8.40
2023-01-07T02:09:34.519Z,8.40
2023-01-07T02:12:16.898Z,8.40
2023-01-07T02:14:43.692Z,8.40
2023-01-07T02:17:15.400Z,8.40
2023-01-07T02:20:01.129Z,8.40
2023-01-07T02:22:49.992Z,8.40
2023-01-07T02:25:35.680Z,8.50
2023-01-07T02:28:02.325Z,8.40
2023-01-07T02:30:29.016Z,8.40
2023-01-07T02:32:59.270Z,8.40
2023-01-07T02:35:44.823Z,8.40
2023-01-07T02:38:30.211Z,8.40
2023-01-07T02:41:15.428Z,8.40
2023-01-07T02:44:02.067Z,8.40
2023-01-07T02:46:42.472Z,8.40
2023-01-07T02:49:10.099Z,8.40
2023-01-07T02:51:37.808Z,8.40
2023-01-07T02:54:06.760Z,8.40
2023-01-07T02:56:52.087Z,8.40
2023-01-07T02:59:37.865Z,8.30
2023-01-07T03:02:17.862Z,8.30
2023-01-07T03:04:56.935Z,8.30
2023-01-07T03:07:26.721Z,8.30
2023-01-07T03:10:08.875Z,8.30
2023-01-07T03:12:40.943Z,8.30
2023-01-07T03:15:11.432Z,8.40
2023-01-07T03:17:41.424Z,8.40
2023-01-07T03:20:08.233Z,8.40
2023-01-07T03:22:36.667Z,8.40
2023-01-07T03:25:03.785Z,8.40
2023-01-07T03:27:50.801Z,8.40
2023-01-07T03:30:18.889Z,8.40
2023-01-07T03:32:48.438Z,8.50
2023-01-07T03:35:15.466Z,8.50
2023-01-07T03:37:42.819Z,8.50
2023-01-07T03:40:11.771Z,8.50
2023-01-07T03:42:42.203Z,8.60
2023-01-07T03:45:17.104Z,8.60
2023-01-07T03:47:45.613Z,8.60
2023-01-07T03:50:12.949Z,8.60
2023-01-07T03:52:42.583Z,8.60
2023-01-07T03:55:09.817Z,8.60
2023-01-07T03:57:37.024Z,8.60
2023-01-07T04:00:05.267Z,8.60
2023-01-07T04:02:41.035Z,8.60
2023-01-07T04:05:10.476Z,8.60
2023-01-07T04:07:37.678Z,8.60
2023-01-07T04:10:05.541Z,8.70
2023-01-07T04:12:32.408Z,8.60
2023-01-07T04:14:59.362Z,8.60
2023-01-07T04:17:26.673Z,8.60
2023-01-07T04:19:53.391Z,8.60
2023-01-07T04:22:20.184Z,8.50
2023-01-07T04:24:47.336Z,8.50
2023-01-07T04:27:16.217Z,8.60
2023-01-07T04:29:42.918Z,8.50
2023-01-07T04:32:10.089Z,8.60
2023-01-07T04:34:36.804Z,8.60
2023-01-07T04:37:04.377Z,8.60
2023-01-07T04:39:31.106Z,8.60
2023-01-07T04:41:57.850Z,8.60
2023-01-07T04:44:24.788Z,8.60
2023-01-07T04:46:52.865Z,8.60
2023-01-07T04:49:20.337Z,8.60
2023-01-07T04:51:47.891Z,8.60
2023-01-07T04:54:14.795Z,8.60
2023-01-07T04:56:42.491Z,8.60
2023-01-07T04:59:09.417Z,8.60
2023-01-07T05:01:36.363Z,8.60
2023-01-07T05:04:03.264Z,8.60
2023-01-07T05:06:31.465Z,8.60
2023-01-07T05:08:58.415Z,8.60
2023-01-07T05:11:25.351Z,8.60
2023-01-07T05:13:54.888Z,8.60
2023-01-07T05:16:24.413Z,8.60
2023-01-07T05:18:52.815Z,8.60
2023-01-07T05:21:19.505Z,8.50
2023-01-07T05:23:46.347Z,8.40
2023-01-07T05:26:13.004Z,8.40
2023-01-07T05:28:39.773Z,8.30
2023-01-07T05:31:06.808Z,8.30
2023-01-07T05:33:33.852Z,8.30
2023-01-07T05:36:00.651Z,8.20
2023-01-07T05:38:28.212Z,8.20
2023-01-07T05:40:55.415Z,8.20
2023-01-07T05:43:25.459Z,8.10
2023-01-07T05:45:52.169Z,8.10
2023-01-07T05:48:19.050Z,8.10
2023-01-07T05:50:45.728Z,8.10
2023-01-07T05:53:12.604Z,8.10
2023-01-07T05:55:39.361Z,8.00
2023-01-07T05:58:06.641Z,8.00
2023-01-07T06:00:33.667Z,8.10
2023-01-07T06:03:00.353Z,8.00
2023-01-07T06:05:27.042Z,8.00
2023-01-07T06:07:53.739Z,8.00
2023-01-07T06:10:20.385Z,8.00
2023-01-07T06:12:47.200Z,8.10
2023-01-07T06:15:13.892Z,8.10
2023-01-07T06:17:40.550Z,8.10
2023-01-07T06:20:09.219Z,8.20
2023-01-07T06:22:36.481Z,8.30
2023-01-07T06:25:03.537Z,8.30
2023-01-07T06:27:30.187Z,8.40
2023-01-07T06:29:56.802Z,8.40
2023-01-07T06:32:23.496Z,8.40
2023-01-07T06:34:50.175Z,8.50
2023-01-07T06:37:18.040Z,8.50
2023-01-07T06:39:44.739Z,8.50
2023-01-07T06:42:11.410Z,8.60
2023-01-07T06:44:37.999Z,8.60
2023-01-07T06:47:04.682Z,8.60
2023-01-07T06:49:31.293Z,8.60
2023-01-07T06:51:57.924Z,8.60
2023-01-07T06:54:24.584Z,8.60
2023-01-07T06:56:51.228Z,8.60
2023-01-07T06:59:17.880Z,8.60
2023-01-07T07:01:46.586Z,8.60
2023-01-07T07:04:13.589Z,8.60
2023-01-07T07:06:40.352Z,8.60
2023-01-07T07:09:06.987Z,8.60
2023-01-07T07:11:33.960Z,8.60
2023-01-07T07:14:00.728Z,8.60
2023-01-07T07:16:27.502Z,8.60
2023-01-07T07:18:54.229Z,8.60
2023-01-07T07:21:20.912Z,8.60
2023-01-07T07:23:47.601Z,8.60
2023-01-07T07:26:14.252Z,8.60
2023-01-07T07:28:42.847Z,8.60
2023-01-07T07:31:09.813Z,8.60
2023-01-07T07:33:36.597Z,8.60
2023-01-07T07:36:04.044Z,8.50
2023-01-07T07:38:30.707Z,8.50
2023-01-07T07:40:57.331Z,8.50
2023-01-07T07:43:23.953Z,8.50
2023-01-07T07:45:50.691Z,8.50
2023-01-07T07:48:17.458Z,8.50
2023-01-07T07:50:44.172Z,8.50
2023-01-07T07:53:11.423Z,8.50
2023-01-07T07:55:38.466Z,8.50
2023-01-07T07:58:05.552Z,8.50
2023-01-07T08:00:32.487Z,8.50
2023-01-07T08:02:59.710Z,8.50
2023-01-07T08:05:26.820Z,8.50
2023-01-07T08:07:53.664Z,8.60
2023-01-07T08:10:20.828Z,8.60
2023-01-07T08:12:47.482Z,8.60
2023-01-07T08:15:14.094Z,8.70
2023-01-07T08:17:40.905Z,8.70
2023-01-07T08:20:08.195Z,8.80
2023-01-07T08:22:35.001Z,8.90
2023-01-07T08:25:01.838Z,8.90
2023-01-07T08:27:29.092Z,8.90
2023-01-07T08:29:56.003Z,9.00
2023-01-07T08:32:23.018Z,9.10
2023-01-07T08:34:49.797Z,9.10
2023-01-07T08:37:16.727Z,9.20
2023-01-07T08:39:43.401Z,9.30
2023-01-07T08:42:10.059Z,9.30
2023-01-07T08:44:36.955Z,9.30
2023-01-07T08:47:03.787Z,9.30
2023-01-07T08:49:30.453Z,9.40
2023-01-07T08:51:57.128Z,9.40
2023-01-07T08:54:23.757Z,9.40
2023-01-07T08:56:50.563Z,9.40
2023-01-07T08:59:17.189Z,9.50
2023-01-07T09:01:44.108Z,9.50
2023-01-07T09:04:10.861Z,9.50
2023-01-07T09:06:37.504Z,9.60
2023-01-07T09:09:04.148Z,9.60
2023-01-07T09:11:30.880Z,9.60
2023-01-07T09:13:57.658Z,9.80
2023-01-07T09:16:24.385Z,9.90
2023-01-07T09:18:51.170Z,10.00
2023-01-07T09:21:17.907Z,10.10
2023-01-07T09:23:44.580Z,10.20
2023-01-07T09:26:11.345Z,10.20
2023-01-07T09:28:37.985Z,10.20
2023-01-07T09:31:05.545Z,10.30
2023-01-07T09:33:32.353Z,10.30
2023-01-07T09:35:59.097Z,10.30
2023-01-07T09:38:25.766Z,10.40
2023-01-07T09:40:53.080Z,10.40
2023-01-07T09:43:19.720Z,10.40
2023-01-07T09:45:48.273Z,10.40
2023-01-07T09:48:19.357Z,10.40
2023-01-07T09:50:58.747Z,10.40
2023-01-07T09:53:27.296Z,10.40
2023-01-07T09:56:10.887Z,10.40
2023-01-07T09:58:40.857Z,10.30
2023-01-07T10:01:17.570Z,10.30
2023-01-07T10:03:54.700Z,10.30
2023-01-07T10:06:42.778Z,10.40
2023-01-07T10:09:46.014Z,10.40
2023-01-07T10:12:12.615Z,10.40
2023-01-07T10:14:47.112Z,10.40
2023-01-07T10:17:25.938Z,10.40
2023-01-07T10:20:18.975Z,10.40
2023-01-07T10:22:50.820Z,10.40
2023-01-07T10:25:22.235Z,10.50
2023-01-07T10:27:49.632Z,10.50
2023-01-07T10:30:19.253Z,10.50
2023-01-07T10:32:48.106Z,10.50
2023-01-07T10:35:18.483Z,10.50
2023-01-07T10:37:45.205Z,10.50
2023-01-07T10:40:22.901Z,10.50
2023-01-07T10:43:08.352Z,10.60
2023-01-07T10:45:44.945Z,10.60
2023-01-07T10:48:21.244Z,10.60
2023-01-07T10:50:50.955Z,10.60
2023-01-07T10:53:19.233Z,10.50
2023-01-07T10:55:54.441Z,10.50
2023-01-07T10:58:22.765Z,10.50
2023-01-07T11:00:49.784Z,10.50
2023-01-07T11:03:20.006Z,10.50
2023-01-07T11:05:48.430Z,10.50
2023-01-07T11:08:25.732Z,10.50
2023-01-07T11:10:52.441Z,10.50
2023-01-07T11:13:21.380Z,10.50
2023-01-07T11:15:53.393Z,10.60
2023-01-07T11:18:21.573Z,10.70
2023-01-07T11:20:50.050Z,10.70
2023-01-07T11:23:27.638Z,10.80
2023-01-07T11:25:55.238Z,10.80
2023-01-07T11:28:26.534Z,10.80
2023-01-07T11:30:59.968Z,10.80
2023-01-07T11:34:03.107Z,10.80
2023-01-07T11:36:43.063Z,10.70
2023-01-07T11:39:11.779Z,10.70
2023-01-07T11:41:50.776Z,10.80
2023-01-07T11:44:17.392Z,10.80
2023-01-07T11:46:45.168Z,10.80
2023-01-07T11:49:26.265Z,10.80
2023-01-07T11:51:53.213Z,10.90
2023-01-07T11:54:29.530Z,10.80
2023-01-07T11:57:21.685Z,10.70
2023-01-07T11:59:48.482Z,10.60
2023-01-07T12:02:25.866Z,10.50
2023-01-07T12:04:52.650Z,10.40
2023-01-07T12:07:19.583Z,10.30
2023-01-07T12:09:46.333Z,10.20
2023-01-07T12:12:34.883Z,10.10
2023-01-07T12:15:19.098Z,10.10
2023-01-07T12:17:47.169Z,10.00
2023-01-07T12:20:32.248Z,10.00
2023-01-07T12:23:01.887Z,9.90
2023-01-07T12:25:33.615Z,9.90
2023-01-07T12:28:16.827Z,9.90
2023-01-07T12:30:59.094Z,9.90
2023-01-07T12:33:44.599Z,9.90
2023-01-07T12:36:23.253Z,9.80
2023-01-07T12:38:53.011Z,9.70
2023-01-07T12:41:22.250Z,9.70
2023-01-07T12:44:04.846Z,9.60
2023-01-07T12:46:38.776Z,9.60
2023-01-07T12:49:11.102Z,9.50
2023-01-07T12:51:48.564Z,9.50
2023-01-07T12:54:22.773Z,9.50
2023-01-07T12:56:53.548Z,9.40
2023-01-07T12:59:46.780Z,9.40
2023-01-07T13:02:19.862Z,9.30
2023-01-07T13:04:53.066Z,9.30
2023-01-07T13:07:24.450Z,9.20
2023-01-07T13:10:00.511Z,9.30
2023-01-07T13:12:44.254Z,9.20
2023-01-07T13:15:20.726Z,9.20
2023-01-07T13:17:51.388Z,9.20
2023-01-07T13:20:33.384Z,9.10
2023-01-07T13:23:00.806Z,9.10
2023-01-07T13:25:32.844Z,9.10
2023-01-07T13:28:02.316Z,9.10
2023-01-07T13:30:31.915Z,9.10
2023-01-07T13:33:07.685Z,9.00
2023-01-07T13:35:41.460Z,9.00
2023-01-07T13:38:11.067Z,9.00
2023-01-07T13:40:53.022Z,9.00
2023-01-07T13:43:22.703Z,9.00
2023-01-07T13:45:55.756Z,9.00
2023-01-07T13:48:24.088Z,9.00
2023-01-07T13:51:01.461Z,9.00
2023-01-07T13:53:31.704Z,8.90
2023-01-07T13:56:16.708Z,8.90
2023-01-07T13:58:45.057Z,8.90
2023-01-07T14:01:13.318Z,8.90
2023-01-07T14:03:40.589Z,8.90
2023-01-07T14:06:19.813Z,8.90
2023-01-07T14:08:52.568Z,8.90
2023-01-07T14:11:20.671Z,8.90
2023-01-07T14:13:54.890Z,8.90
2023-01-07T14:16:24.402Z,8.90
2023-01-07T14:19:10.942Z,8.90
2023-01-07T14:21:44.577Z,8.90
2023-01-07T14:24:16.754Z,8.90
2023-01-07T14:26:56.541Z,8.90
2023-01-07T14:29:38.261Z,8.90
2023-01-07T14:32:23.822Z,8.90
2023-01-07T14:34:55.389Z,8.90
2023-01-07T14:37:33.013Z,8.80
2023-01-07T14:39:59.747Z,8.80
2023-01-07T14:42:28.007Z,8.80
2023-01-07T14:44:54.702Z,8.80
2023-01-07T14:47:50.677Z,8.90
2023-01-07T14:50:33.004Z,8.80
2023-01-07T14:53:13.488Z,8.80
2023-01-07T14:55:58.726Z,8.80
2023-01-07T14:58:30.904Z,8.80
2023-01-07T15:01:17.090Z,8.80
2023-01-07T15:03:46.854Z,8.80
2023-01-07T15:06:22.442Z,8.70
2023-01-07T15:09:13.127Z,8.70
2023-01-07T15:12:01.726Z,8.70
2023-01-07T15:15:00.452Z,8.70
2023-01-07T15:17:27.144Z,8.70
2023-01-07T15:19:54.316Z,8.60
2023-01-07T15:22:40.135Z,8.60
2023-01-07T15:25:19.078Z,8.60
2023-01-07T15:27:51.946Z,8.50
2023-01-07T15:30:21.773Z,8.50
2023-01-07T15:33:07.237Z,8.40
2023-01-07T15:35:37.845Z,8.40
2023-01-07T15:38:05.479Z,8.40
2023-01-07T15:40:32.117Z,8.30
2023-01-07T15:42:59.027Z,8.30
2023-01-07T15:45:27.766Z,8.30
2023-01-07T15:48:04.880Z,8.30
2023-01-07T15:50:33.737Z,8.30
2023-01-07T15:53:01.730Z,8.30
2023-01-07T15:55:40.116Z,8.20
2023-01-07T15:58:08.681Z,8.30
2023-01-07T16:00:35.341Z,8.30
2023-01-07T16:03:02.560Z,8.30
2023-01-07T16:05:29.395Z,8.30
2023-01-07T16:08:00.194Z,8.30
2023-01-07T16:10:26.947Z,8.30
2023-01-07T16:12:57.748Z,8.30
2023-01-07T16:15:35.141Z,8.30
2023-01-07T16:18:03.090Z,8.30
2023-01-07T16:20:35.389Z,8.30
2023-01-07T16:23:08.182Z,8.30
2023-01-07T16:25:40.311Z,8.30
2023-01-07T16:28:07.304Z,8.30
2023-01-07T16:30:38.003Z,8.30
2023-01-07T16:33:05.774Z,8.30
2023-01-07T16:35:36.676Z,8.30
2023-01-07T16:38:04.044Z,8.30
2023-01-07T16:40:35.177Z,8.30
2023-01-07T16:43:02.124Z,8.30
2023-01-07T16:45:30.315Z,8.30
2023-01-07T16:48:14.595Z,8.30
2023-01-07T16:50:42.287Z,8.30
2023-01-07T16:53:22.549Z,8.30
2023-01-07T16:55:50.976Z,8.30
2023-01-07T16:58:37.882Z,8.40
2023-01-07T17:01:05.069Z,8.40
2023-01-07T17:03:35.859Z,8.40
2023-01-07T17:06:04.301Z,8.40
2023-01-07T17:08:31.468Z,8.40
2023-01-07T17:11:00.529Z,8.40
2023-01-07T17:13:32.354Z,8.40
2023-01-07T17:16:16.594Z,8.40
2023-01-07T17:18:43.293Z,8.30
2023-01-07T17:21:29.903Z,8.30
2023-01-07T17:23:56.592Z,8.30
2023-01-07T17:26:24.315Z,8.30
2023-01-07T17:28:52.668Z,8.30
2023-01-07T17:31:20.144Z,8.30
2023-01-07T17:33:46.917Z,8.30
2023-01-07T17:36:17.597Z,8.30
2023-01-07T17:38:44.923Z,8.20
2023-01-07T17:41:32.710Z,8.20
2023-01-07T17:43:59.437Z,8.20
2023-01-07T17:46:27.663Z,8.10
2023-01-07T17:48:54.492Z,8.10
2023-01-07T17:51:21.143Z,8.20
2023-01-07T17:53:48.795Z,8.10
2023-01-07T17:56:16.127Z,8.10
2023-01-07T17:58:44.778Z,8.10
2023-01-07T18:01:13.027Z,8.10
2023-01-07T18:03:39.857Z,8.10
2023-01-07T18:06:27.602Z,8.10
2023-01-07T18:08:54.254Z,8.00
2023-01-07T18:11:41.261Z,7.90
2023-01-07T18:14:08.150Z,7.90
2023-01-07T18:16:34.883Z,7.90
2023-01-07T18:19:01.609Z,7.80
2023-01-07T18:21:28.520Z,7.80
2023-01-07T18:23:55.312Z,7.80
2023-01-07T18:26:22.375Z,7.80
2023-01-07T18:28:49.111Z,7.70
2023-01-07T18:31:15.845Z,7.60
2023-01-07T18:33:42.899Z,7.60
2023-01-07T18:36:10.435Z,7.50
2023-01-07T18:38:37.354Z,7.50
2023-01-07T18:41:04.297Z,7.50
2023-01-07T18:43:31.030Z,7.40
2023-01-07T18:45:57.941Z,7.40
2023-01-07T18:48:25.366Z,7.30
2023-01-07T18:50:52.023Z,7.20
2023-01-07T18:53:19.382Z,7.20
2023-01-07T18:55:46.534Z,7.10
2023-01-07T18:58:14.465Z,7.10
2023-01-07T19:00:41.628Z,7.00
2023-01-07T19:03:09.441Z,7.00
2023-01-07T19:05:38.828Z,7.00
2023-01-07T19:08:05.539Z,6.90
2023-01-07T19:10:32.256Z,6.90
2023-01-07T19:12:59.055Z,6.80
2023-01-07T19:15:25.762Z,6.70
2023-01-07T19:17:54.206Z,6.70
2023-01-07T19:20:20.856Z,6.60
2023-01-07T19:22:47.556Z,6.60
2023-01-07T19:25:14.445Z,6.50
2023-01-07T19:27:41.248Z,6.50
2023-01-07T19:30:08.341Z,6.50
2023-01-07T19:32:34.947Z,6.50
2023-01-07T19:35:01.565Z,6.40
2023-01-07T19:37:28.594Z,6.40
2023-01-07T19:39:55.242Z,6.40
2023-01-07T19:42:21.882Z,6.40
2023-01-07T19:44:48.538Z,6.40
2023-01-07T19:47:17.149Z,6.30
2023-01-07T19:49:45.340Z,6.40
2023-01-07T19:52:13.537Z,6.40
2023-01-07T19:54:41.700Z,6.40
2023-01-07T19:57:08.351Z,6.40
2023-01-07T19:59:35.246Z,6.50
2023-01-07T20:02:02.642Z,6.40
2023-01-07T20:04:29.823Z,6.40
2023-01-07T20:06:56.520Z,6.30
2023-01-07T20:09:23.290Z,6.30
2023-01-07T20:11:50.062Z,6.20
2023-01-07T20:14:16.797Z,6.20
2023-01-07T20:16:43.654Z,6.20
2023-01-07T20:19:11.306Z,6.10
2023-01-07T20:21:39.134Z,6.00
2023-01-07T20:24:06.532Z,6.00
2023-01-07T20:26:33.671Z,5.90
2023-01-07T20:29:00.686Z,5.90
2023-01-07T20:31:28.619Z,5.90
2023-01-07T20:33:58.120Z,5.90
2023-01-07T20:36:26.047Z,5.90
2023-01-07T20:38:52.709Z,5.90
2023-01-07T20:41:21.387Z,5.90
2023-01-07T20:43:58.365Z,5.90
2023-01-07T20:46:25.587Z,5.90
2023-01-07T20:48:52.505Z,5.80
2023-01-07T20:51:19.367Z,5.80
2023-01-07T20:53:49.133Z,5.80
2023-01-07T20:56:17.479Z,5.80
2023-01-07T20:58:44.224Z,5.70
2023-01-07T21:01:13.242Z,5.70
2023-01-07T21:03:40.576Z,5.70
2023-01-07T21:06:09.828Z,5.60
2023-01-07T21:08:36.879Z,5.60
2023-01-07T21:11:03.569Z,5.70
2023-01-07T21:13:30.250Z,5.70
2023-01-07T21:16:01.440Z,5.80
2023-01-07T21:18:28.111Z,5.90
2023-01-07T21:20:54.798Z,5.90
2023-01-07T21:23:21.584Z,5.90
2023-01-07T21:25:48.967Z,5.90
2023-01-07T21:28:15.681Z,5.90
2023-01-07T21:30:42.452Z,5.90
2023-01-07T21:33:09.217Z,5.90
2023-01-07T21:35:39.074Z,5.90
2023-01-07T21:38:06.007Z,5.90
2023-01-07T21:40:32.674Z,5.90
2023-01-07T21:42:59.395Z,5.90
2023-01-07T21:45:26.047Z,5.90
2023-01-07T21:47:52.693Z,5.90
2023-01-07T21:50:19.398Z,5.90
2023-01-07T21:52:46.031Z,5.90
2023-01-07T21:55:12.605Z,5.90
2023-01-07T21:57:39.694Z,5.90
2023-01-07T22:00:06.853Z,5.90
2023-01-07T22:02:38.808Z,5.90
2023-01-07T22:05:05.694Z,5.90
2023-01-07T22:07:32.332Z,5.90
2023-01-07T22:09:58.997Z,5.90
2023-01-07T22:12:26.210Z,6.00
2023-01-07T22:14:52.952Z,6.00
2023-01-07T22:17:19.939Z,6.10
2023-01-07T22:19:46.693Z,6.10
2023-01-07T22:22:13.415Z,6.20
2023-01-07T22:24:40.069Z,6.20
2023-01-07T22:27:06.695Z,6.30
2023-01-07T22:29:33.567Z,6.30
2023-01-07T22:32:00.282Z,6.30
2023-01-07T22:34:27.025Z,6.40
2023-01-07T22:37:05.658Z,6.40
2023-01-07T22:39:34.752Z,6.40
2023-01-07T22:42:04.637Z,6.50
2023-01-07T22:44:36.578Z,6.50
2023-01-07T22:47:04.506Z,6.50
2023-01-07T22:49:31.891Z,6.60
2023-01-07T22:51:58.876Z,6.60
2023-01-07T22:54:25.697Z,6.60
2023-01-07T22:56:52.535Z,6.60
2023-01-07T22:59:19.205Z,6.70
2023-01-07T23:01:45.935Z,6.70
2023-01-07T23:04:13.007Z,6.60
2023-01-07T23:06:39.963Z,6.70
2023-01-07T23:09:06.799Z,6.60
2023-01-07T23:11:48.499Z,6.70
2023-01-07T23:14:17.740Z,6.70
2023-01-07T23:16:44.617Z,6.70
2023-01-07T23:19:11.856Z,6.70
2023-01-07T23:21:42.577Z,6.70
2023-01-07T23:24:09.875Z,6.80
2023-01-07T23:26:36.654Z,6.80
2023-01-07T23:29:03.651Z,6.80
2023-01-07T23:31:30.388Z,6.80
2023-01-07T23:33:57.145Z,6.90
2023-01-07T23:36:23.988Z,6.90
2023-01-07T23:38:50.761Z,6.90
2023-01-07T23:41:17.409Z,6.90
2023-01-07T23:43:44.063Z,6.90
2023-01-07T23:46:12.728Z,7.00
2023-01-07T23:48:39.467Z,6.90
2023-01-07T23:51:16.194Z,7.00
2023-01-07T23:53:43.322Z,6.90
2023-01-07T23:56:10.373Z,6.90
2023-01-07T23:58:37.668Z,6.90
